createdAt,value
2022-11-13T00:01:42.249Z,99514.50
2022-11-13T00:04:10.816Z,99512.00
2022-11-13T00:06:38.182Z,99510.09
2022-11-13T00:09:05.599Z,99504.13
2022-11-13T00:11:32.966Z,99491.63
2022-11-13T00:14:00.213Z,99501.25
2022-11-13T00:16:27.478Z,99493.44
2022-11-13T00:18:55.563Z,99490.63
2022-11-13T00:21:27.178Z,99496.50
2022-11-13T00:23:55.995Z,99494.09
2022-11-13T00:26:30.412Z,99494.75
2022-11-13T00:29:03.606Z,99498.34
2022-11-13T00:31:31.312Z,99490.53
2022-11-13T00:36:47.743Z,99485.44
2022-11-13T00:39:15.077Z,99482.69
2022-11-13T00:41:42.842Z,99489.78
2022-11-13T00:44:10.135Z,99480.22
2022-11-13T00:46:37.454Z,99487.44
2022-11-13T00:49:05.018Z,99476.41
2022-11-13T00:51:33.191Z,99478.81
2022-11-13T00:54:00.494Z,99474.69
2022-11-13T00:56:28.107Z,99470.88
2022-11-13T00:58:56.176Z,99476.03
2022-11-13T01:01:23.580Z,99466.56
2022-11-13T01:03:50.980Z,99475.47
2022-11-13T01:06:27.164Z,99482.94
2022-11-13T01:08:58.473Z,99478.66
2022-11-13T01:11:30.783Z,99475.06
2022-11-13T01:13:58.638Z,99476.34
2022-11-13T01:16:28.491Z,99474.94
2022-11-13T01:18:57.016Z,99470.47
2022-11-13T01:21:28.758Z,99465.00
2022-11-13T01:23:56.626Z,99462.09
2022-11-13T01:26:31.036Z,99458.56
2022-11-13T01:29:00.454Z,99444.38
2022-11-13T01:31:30.835Z,99449.81
2022-11-13T01:33:58.871Z,99439.44
2022-11-13T01:36:29.701Z,99436.38
2022-11-13T01:38:57.775Z,99436.31
2022-11-13T01:41:35.167Z,99422.94
2022-11-13T01:44:02.474Z,99423.91
2022-11-13T01:46:44.212Z,99415.16
2022-11-13T01:49:11.244Z,99417.25
2022-11-13T01:52:14.234Z,99411.25
2022-11-13T01:55:13.554Z,99413.56
2022-11-13T01:57:41.650Z,99400.41
2022-11-13T02:00:12.314Z,99401.41
2022-11-13T02:02:39.531Z,99394.00
2022-11-13T02:05:09.210Z,99396.75
2022-11-13T02:07:38.458Z,99392.84
2022-11-13T02:10:06.646Z,99393.53
2022-11-13T02:12:46.519Z,99395.59
2022-11-13T02:15:14.185Z,99395.78
2022-11-13T02:17:59.067Z,99391.13
2022-11-13T02:20:59.964Z,99381.50
2022-11-13T02:23:54.435Z,99382.03
2022-11-13T02:26:25.056Z,99374.28
2022-11-13T02:28:52.423Z,99372.88
2022-11-13T02:31:20.495Z,99367.38
2022-11-13T02:33:47.776Z,99366.97
2022-11-13T02:36:16.582Z,99367.34
2022-11-13T02:38:44.711Z,99360.53
2022-11-13T02:41:11.961Z,99345.56
2022-11-13T02:43:39.231Z,99346.38
2022-11-13T02:46:06.874Z,99350.28
2022-11-13T02:48:34.146Z,99346.28
2022-11-13T02:51:01.478Z,99344.31
2022-11-13T02:53:28.766Z,99342.41
2022-11-13T02:55:56.039Z,99332.06
2022-11-13T02:58:23.349Z,99330.16
2022-11-13T03:00:50.659Z,99337.19
2022-11-13T03:03:29.241Z,99332.63
2022-11-13T03:06:06.220Z,99333.50
2022-11-13T03:08:37.015Z,99335.56
2022-11-13T03:11:11.510Z,99328.47
2022-11-13T03:13:39.439Z,99331.09
2022-11-13T03:16:16.934Z,99328.94
2022-11-13T03:18:44.287Z,99328.53
2022-11-13T03:21:16.362Z,99325.91
2022-11-13T03:23:45.341Z,99332.53
2022-11-13T03:26:17.104Z,99331.13
2022-11-13T03:28:44.412Z,99318.00
2022-11-13T03:31:12.245Z,99326.22
2022-11-13T03:33:40.412Z,99320.63
2022-11-13T03:36:08.585Z,99328.13
2022-11-13T03:38:36.030Z,99331.75
2022-11-13T03:41:03.885Z,99320.66
2022-11-13T03:43:31.675Z,99323.91
2022-11-13T03:45:58.927Z,99324.56
2022-11-13T03:48:26.553Z,99321.63
2022-11-13T03:50:55.812Z,99320.94
2022-11-13T03:53:23.135Z,99319.94
2022-11-13T03:55:51.245Z,99329.59
2022-11-13T03:58:19.667Z,99322.63
2022-11-13T04:00:48.363Z,99323.81
2022-11-13T04:03:16.061Z,99313.97
2022-11-13T04:05:43.836Z,99326.16
2022-11-13T04:08:11.194Z,99312.75
2022-11-13T04:10:43.367Z,99318.38
2022-11-13T04:13:10.967Z,99321.72
2022-11-13T04:15:38.402Z,99313.22
2022-11-13T04:18:05.951Z,99304.34
2022-11-13T04:20:33.309Z,99297.53
2022-11-13T04:23:00.674Z,99302.97
2022-11-13T04:25:27.988Z,99306.03
2022-11-13T04:27:55.637Z,99310.06
2022-11-13T04:30:22.939Z,99306.09
2022-11-13T04:32:50.230Z,99297.69
2022-11-13T04:35:17.547Z,99291.75
2022-11-13T04:37:44.812Z,99286.13
2022-11-13T04:40:12.468Z,99282.56
2022-11-13T04:42:51.752Z,99285.63
2022-11-13T04:45:24.204Z,99278.78
2022-11-13T04:47:52.139Z,99293.50
2022-11-13T04:50:19.665Z,99279.94
2022-11-13T04:52:47.435Z,99275.13
2022-11-13T04:55:15.284Z,99272.75
2022-11-13T04:57:42.970Z,99277.03
2022-11-13T05:00:13.185Z,99260.94
2022-11-13T05:02:40.536Z,99267.88
2022-11-13T05:05:08.859Z,99263.16
2022-11-13T05:07:38.782Z,99259.44
2022-11-13T05:10:06.748Z,99246.19
2022-11-13T05:12:35.478Z,99249.25
2022-11-13T05:15:02.813Z,99248.06
2022-11-13T05:17:30.220Z,99243.19
2022-11-13T05:19:57.516Z,99236.66
2022-11-13T05:22:24.851Z,99244.06
2022-11-13T05:24:52.102Z,99228.75
2022-11-13T05:27:19.377Z,99242.44
2022-11-13T05:29:46.687Z,99236.66
2022-11-13T05:32:13.969Z,99229.28
2022-11-13T05:34:41.266Z,99228.75
2022-11-13T05:37:08.650Z,99229.03
2022-11-13T05:39:35.934Z,99221.66
2022-11-13T05:42:03.287Z,99221.19
2022-11-13T05:44:30.562Z,99226.00
2022-11-13T05:46:57.883Z,99213.88
2022-11-13T05:49:25.143Z,99215.53
2022-11-13T05:51:55.476Z,99214.19
2022-11-13T05:54:22.726Z,99210.47
2022-11-13T05:56:49.997Z,99203.34
2022-11-13T05:59:17.299Z,99210.00
2022-11-13T06:01:44.579Z,99208.50
2022-11-13T06:04:11.865Z,99203.69
2022-11-13T06:06:39.253Z,99205.50
2022-11-13T06:09:07.412Z,99207.03
2022-11-13T06:11:34.665Z,99202.41
2022-11-13T06:14:04.269Z,99200.72
2022-11-13T06:16:38.280Z,99198.25
2022-11-13T06:19:10.180Z,99199.94
2022-11-13T06:21:41.112Z,99202.88
2022-11-13T06:24:12.767Z,99188.06
2022-11-13T06:26:40.893Z,99202.28
2022-11-13T06:29:12.275Z,99195.22
2022-11-13T06:31:39.579Z,99191.34
2022-11-13T06:34:06.923Z,99191.06
2022-11-13T06:36:37.419Z,99186.94
2022-11-13T06:39:11.620Z,99182.63
2022-11-13T06:41:41.369Z,99179.47
2022-11-13T06:44:08.851Z,99183.72
2022-11-13T06:46:36.134Z,99180.28
2022-11-13T06:49:03.416Z,99173.91
2022-11-13T06:51:31.975Z,99185.09
2022-11-13T06:53:59.301Z,99181.28
2022-11-13T06:56:26.840Z,99182.88
2022-11-13T06:58:57.124Z,99175.94
2022-11-13T07:01:26.755Z,99184.03
2022-11-13T07:03:54.532Z,99183.03
2022-11-13T07:06:24.631Z,99181.09
2022-11-13T07:08:52.507Z,99180.19
2022-11-13T07:11:23.504Z,99176.50
2022-11-13T07:13:51.145Z,99184.22
2022-11-13T07:16:18.807Z,99178.44
2022-11-13T07:18:54.547Z,99171.16
2022-11-13T07:21:23.420Z,99172.75
2022-11-13T07:23:51.091Z,99164.94
2022-11-13T07:26:19.026Z,99166.41
2022-11-13T07:28:47.623Z,99175.91
2022-11-13T07:31:17.926Z,99162.69
2022-11-13T07:33:49.313Z,99166.81
2022-11-13T07:36:16.886Z,99174.91
2022-11-13T07:38:44.358Z,99167.00
2022-11-13T07:41:16.090Z,99162.09
2022-11-13T07:43:43.340Z,99167.75
2022-11-13T07:46:11.131Z,99175.97
2022-11-13T07:48:38.419Z,99171.09
2022-11-13T07:51:05.990Z,99176.38
2022-11-13T07:53:33.270Z,99168.81
2022-11-13T07:56:05.226Z,99163.13
2022-11-13T07:58:32.790Z,99149.16
2022-11-13T08:01:07.354Z,99172.03
2022-11-13T08:03:34.926Z,99168.81
2022-11-13T08:06:06.748Z,99173.44
2022-11-13T08:08:35.088Z,99161.94
2022-11-13T08:11:09.304Z,99159.53
2022-11-13T08:13:38.073Z,99163.16
2022-11-13T08:16:05.986Z,99159.06
2022-11-13T08:18:34.630Z,99153.59
2022-11-13T08:21:08.074Z,99155.53
2022-11-13T08:23:41.567Z,99152.59
2022-11-13T08:26:10.636Z,99138.84
2022-11-13T08:28:37.913Z,99136.59
2022-11-13T08:31:12.234Z,99143.72
2022-11-13T08:33:40.548Z,99136.34
2022-11-13T08:36:09.983Z,99137.13
2022-11-13T08:38:37.583Z,99130.03
2022-11-13T08:41:09.318Z,99128.00
2022-11-13T08:43:37.114Z,99122.47
2022-11-13T08:46:04.430Z,99118.19
2022-11-13T08:48:32.148Z,99108.22
2022-11-13T08:50:59.615Z,99113.59
2022-11-13T08:53:26.928Z,99121.41
2022-11-13T08:55:54.193Z,99116.34
2022-11-13T08:58:21.491Z,99110.41
2022-11-13T09:00:48.767Z,99097.44
2022-11-13T09:03:16.068Z,99103.53
2022-11-13T09:05:43.377Z,99115.47
2022-11-13T09:08:10.934Z,99109.59
2022-11-13T09:10:38.280Z,99098.72
2022-11-13T09:13:11.660Z,99099.19
2022-11-13T09:15:40.534Z,99098.38
2022-11-13T09:18:09.570Z,99094.00
2022-11-13T09:20:37.778Z,99096.75
2022-11-13T09:23:09.198Z,99096.44
2022-11-13T09:25:38.204Z,99095.16
2022-11-13T09:28:07.253Z,99093.56
2022-11-13T09:30:34.929Z,99094.13
2022-11-13T09:33:02.515Z,99085.31
2022-11-13T09:35:35.199Z,99082.34
2022-11-13T09:38:14.734Z,99085.38
2022-11-13T09:40:59.783Z,99071.34
2022-11-13T09:43:58.388Z,99070.78
2022-11-13T09:47:21.510Z,99062.44
2022-11-13T09:50:16.704Z,99053.59
2022-11-13T09:52:45.903Z,99051.53
2022-11-13T09:55:23.451Z,99063.56
2022-11-13T09:58:14.610Z,99068.59
2022-11-13T10:00:42.131Z,99064.31
2022-11-13T10:07:32.661Z,99047.66
2022-11-13T10:10:37.163Z,99067.63
2022-11-13T10:13:05.879Z,99061.41
2022-11-13T10:15:34.059Z,99052.72
2022-11-13T10:18:20.099Z,99039.59
2022-11-13T10:20:58.022Z,99028.38
2022-11-13T10:23:34.122Z,99030.69
2022-11-13T10:26:24.815Z,99028.38
2022-11-13T10:29:11.502Z,99036.31
2022-11-13T10:31:51.507Z,99038.94
2022-11-13T10:34:20.054Z,99029.31
2022-11-13T10:37:09.069Z,99028.03
2022-11-13T10:39:45.698Z,99028.84
2022-11-13T10:42:31.926Z,99034.22
2022-11-13T10:45:01.182Z,99012.44
2022-11-13T10:50:32.495Z,99020.81
2022-11-13T10:53:00.116Z,99008.31
2022-11-13T10:55:41.254Z,99004.19
2022-11-13T10:58:18.312Z,99002.56
2022-11-13T11:00:49.728Z,99009.22
2022-11-13T11:03:24.475Z,99002.72
2022-11-13T11:06:04.921Z,98996.50
2022-11-13T11:08:36.010Z,98988.13
2022-11-13T11:11:36.031Z,98982.97
2022-11-13T11:14:34.822Z,98968.75
2022-11-13T11:17:04.180Z,98972.09
2022-11-13T11:19:37.086Z,98970.69
2022-11-13T11:22:22.288Z,98956.13
2022-11-13T11:25:26.118Z,98954.63
2022-11-13T11:28:15.828Z,98948.19
2022-11-13T11:31:00.187Z,98954.16
2022-11-13T11:34:02.311Z,98947.78
2022-11-13T11:37:16.609Z,98941.44
2022-11-13T11:40:22.203Z,98938.56
2022-11-13T11:43:51.426Z,98946.94
2022-11-13T11:46:24.538Z,98938.47
2022-11-13T11:48:52.368Z,98952.00
2022-11-13T11:51:48.996Z,98940.63
2022-11-13T11:55:00.942Z,98940.19
2022-11-13T11:58:14.912Z,98928.38
2022-11-13T12:01:23.282Z,98934.09
2022-11-13T12:04:59.282Z,98936.06
2022-11-13T12:08:30.907Z,98923.75
2022-11-13T12:11:38.207Z,98925.63
2022-11-13T12:14:35.594Z,98923.22
2022-11-13T12:17:48.442Z,98914.50
2022-11-13T12:20:55.215Z,98906.38
2022-11-13T12:24:02.928Z,98911.41
2022-11-13T12:27:31.387Z,98906.91
2022-11-13T12:35:32.412Z,98879.78
2022-11-13T12:38:36.578Z,98883.66
2022-11-13T12:41:49.016Z,98878.75
2022-11-13T12:44:30.739Z,98876.31
2022-11-13T12:47:01.562Z,98878.03
2022-11-13T12:49:35.690Z,98864.97
2022-11-13T12:52:24.058Z,98861.84
2022-11-13T12:54:52.378Z,98856.81
2022-11-13T12:57:30.105Z,98847.78
2022-11-13T13:00:13.364Z,98849.81
2022-11-13T13:03:27.250Z,98850.63
2022-11-13T13:06:18.776Z,98842.25
2022-11-13T13:09:46.410Z,98837.59
2022-11-13T13:13:23.688Z,98838.25
2022-11-13T13:16:02.815Z,98834.59
2022-11-13T13:18:40.621Z,98844.13
2022-11-13T13:21:17.738Z,98838.63
2022-11-13T13:23:53.391Z,98830.31
2022-11-13T13:26:30.002Z,98827.13
2022-11-13T13:29:18.351Z,98821.22
2022-11-13T13:32:21.271Z,98820.09
2022-11-13T13:35:30.515Z,98809.41
2022-11-13T13:38:52.227Z,98800.66
2022-11-13T13:41:54.350Z,98801.88
2022-11-13T13:45:38.431Z,98805.59
2022-11-13T13:48:13.603Z,98798.75
2022-11-13T13:50:47.204Z,98790.19
2022-11-13T13:53:27.591Z,98787.50
2022-11-13T13:55:59.347Z,98792.03
2022-11-13T13:58:35.004Z,98789.44
2022-11-13T14:01:18.963Z,98796.50
2022-11-13T14:03:47.991Z,98781.38
2022-11-13T14:06:24.186Z,98779.31
2022-11-13T14:08:51.570Z,98791.84
2022-11-13T14:11:27.213Z,98788.69
2022-11-13T14:13:54.646Z,98801.88
2022-11-13T14:16:22.160Z,98803.75
2022-11-13T14:18:49.519Z,98800.41
2022-11-13T14:21:24.921Z,98813.78
2022-11-13T14:23:53.606Z,98813.25
2022-11-13T14:26:21.232Z,98808.53
2022-11-13T14:29:01.881Z,98800.19
2022-11-13T14:31:34.144Z,98810.50
2022-11-13T14:34:12.023Z,98806.09
2022-11-13T14:36:40.873Z,98803.81
2022-11-13T14:39:32.943Z,98812.91
2022-11-13T14:42:01.142Z,98811.78
2022-11-13T14:44:34.610Z,98804.22
2022-11-13T14:47:19.891Z,98810.63
2022-11-13T14:49:47.213Z,98812.69
2022-11-13T14:52:28.784Z,98800.75
2022-11-13T14:55:15.332Z,98800.75
2022-11-13T14:57:50.568Z,98794.34
2022-11-13T15:00:28.102Z,98794.38
2022-11-13T15:02:55.407Z,98801.44
2022-11-13T15:05:23.054Z,98796.84
2022-11-13T15:07:51.389Z,98784.38
2022-11-13T15:10:24.318Z,98781.78
2022-11-13T15:12:52.460Z,98792.81
2022-11-13T15:15:30.168Z,98788.66
2022-11-13T15:17:57.684Z,98791.13
2022-11-13T15:20:30.976Z,98789.44
2022-11-13T15:23:00.269Z,98782.31
2022-11-13T15:25:27.953Z,98787.25
2022-11-13T15:27:55.295Z,98776.34
2022-11-13T15:30:22.582Z,98775.69
2022-11-13T15:32:53.951Z,98781.97
2022-11-13T15:35:21.526Z,98778.50
2022-11-13T15:37:48.937Z,98776.41
2022-11-13T15:40:17.767Z,98780.66
2022-11-13T15:42:45.688Z,98779.28
2022-11-13T15:45:17.478Z,98782.38
2022-11-13T15:47:44.851Z,98780.47
2022-11-13T15:50:14.474Z,98772.75
2022-11-13T15:52:49.044Z,98770.72
2022-11-13T15:55:34.587Z,98768.41
2022-11-13T15:58:02.645Z,98771.81
2022-11-13T16:00:30.181Z,98777.06
2022-11-13T16:02:58.039Z,98773.72
2022-11-13T16:05:29.880Z,98761.09
2022-11-13T16:07:57.650Z,98760.75
2022-11-13T16:10:25.517Z,98760.13
2022-11-13T16:12:53.685Z,98749.19
2022-11-13T16:15:21.538Z,98755.25
2022-11-13T16:17:55.587Z,98753.34
2022-11-13T16:20:22.960Z,98752.41
2022-11-13T16:22:50.693Z,98739.91
2022-11-13T16:25:22.574Z,98748.75
2022-11-13T16:27:50.843Z,98740.41
2022-11-13T16:30:24.000Z,98747.69
2022-11-13T16:32:51.319Z,98747.63
2022-11-13T16:35:20.680Z,98749.66
2022-11-13T16:37:49.421Z,98754.50
2022-11-13T16:40:24.495Z,98748.50
2022-11-13T16:42:52.054Z,98744.00
2022-11-13T16:45:20.941Z,98752.69
2022-11-13T16:47:49.801Z,98753.59
2022-11-13T16:50:28.239Z,98751.19
2022-11-13T16:52:56.616Z,98744.38
2022-11-13T16:55:24.439Z,98755.00
2022-11-13T16:57:51.884Z,98751.06
2022-11-13T17:00:20.497Z,98757.75
2022-11-13T17:02:52.545Z,98753.63
2022-11-13T17:05:23.509Z,98750.78
2022-11-13T17:07:56.838Z,98752.88
2022-11-13T17:10:31.352Z,98743.59
2022-11-13T17:12:59.050Z,98739.72
2022-11-13T17:15:26.314Z,98738.53
2022-11-13T17:17:58.412Z,98735.63
2022-11-13T17:20:25.957Z,98744.69
2022-11-13T17:22:53.263Z,98742.44
2022-11-13T17:25:23.259Z,98739.84
2022-11-13T17:27:52.558Z,98739.66
2022-11-13T17:30:23.419Z,98735.53
2022-11-13T17:32:50.705Z,98739.03
2022-11-13T17:35:17.963Z,98738.97
2022-11-13T17:37:45.226Z,98740.38
2022-11-13T17:40:12.689Z,98741.16
2022-11-13T17:42:41.489Z,98746.53
2022-11-13T17:45:09.626Z,98734.75
2022-11-13T17:47:36.907Z,98737.16
2022-11-13T17:50:07.641Z,98740.38
2022-11-13T17:52:35.264Z,98749.56
2022-11-13T17:55:05.952Z,98752.78
2022-11-13T17:57:33.725Z,98753.31
2022-11-13T18:00:02.712Z,98752.53
2022-11-13T18:02:30.579Z,98755.06
2022-11-13T18:04:59.169Z,98751.41
2022-11-13T18:07:27.239Z,98748.31
2022-11-13T18:09:54.547Z,98756.09
2022-11-13T18:12:21.891Z,98750.94
2022-11-13T18:14:52.418Z,98745.69
2022-11-13T18:17:23.552Z,98729.09
2022-11-13T18:19:54.834Z,98732.19
2022-11-13T18:22:25.954Z,98746.47
2022-11-13T18:24:55.976Z,98739.50
2022-11-13T18:27:23.239Z,98738.94
2022-11-13T18:29:50.707Z,98731.94
2022-11-13T18:32:19.594Z,98736.19
2022-11-13T18:34:46.859Z,98738.81
2022-11-13T18:37:14.182Z,98746.56
2022-11-13T18:39:41.460Z,98740.63
2022-11-13T18:42:08.764Z,98746.94
2022-11-13T18:44:36.750Z,98749.56
2022-11-13T18:47:04.128Z,98751.59
2022-11-13T18:49:31.607Z,98757.91
2022-11-13T18:51:58.879Z,98754.94
2022-11-13T18:54:28.539Z,98753.31
2022-11-13T18:56:55.801Z,98743.38
2022-11-13T18:59:23.135Z,98736.53
2022-11-13T19:01:51.058Z,98746.13
2022-11-13T19:04:23.190Z,98735.13
2022-11-13T19:06:51.556Z,98735.47
2022-11-13T19:09:20.769Z,98743.16
2022-11-13T19:11:48.619Z,98746.00
2022-11-13T19:14:18.310Z,98751.03
2022-11-13T19:16:46.299Z,98741.66
2022-11-13T19:19:22.479Z,98736.53
2022-11-13T19:21:50.609Z,98731.25
2022-11-13T19:24:18.152Z,98738.00
2022-11-13T19:26:45.954Z,98731.44
2022-11-13T19:29:13.865Z,98732.25
2022-11-13T19:31:44.689Z,98734.75
2022-11-13T19:34:13.288Z,98730.44
2022-11-13T19:36:41.367Z,98727.22
2022-11-13T19:39:09.753Z,98728.13
2022-11-13T19:41:37.884Z,98735.44
2022-11-13T19:44:06.522Z,98723.03
2022-11-13T19:46:34.166Z,98706.38
2022-11-13T19:49:01.546Z,98712.13
2022-11-13T19:51:29.049Z,98711.94
2022-11-13T19:53:59.750Z,98715.19
2022-11-13T19:56:28.792Z,98712.81
2022-11-13T19:58:57.020Z,98721.53
2022-11-13T20:01:28.146Z,98709.66
2022-11-13T20:04:02.671Z,98698.28
2022-11-13T20:06:33.372Z,98710.41
2022-11-13T20:09:03.306Z,98710.50
2022-11-13T20:11:32.695Z,98716.47
2022-11-13T20:14:00.215Z,98713.16
2022-11-13T20:16:27.628Z,98716.34
2022-11-13T20:18:58.059Z,98725.13
2022-11-13T20:21:31.588Z,98710.22
2022-11-13T20:24:00.705Z,98714.63
2022-11-13T20:26:28.470Z,98723.72
2022-11-13T20:28:55.775Z,98719.91
2022-11-13T20:31:25.687Z,98718.78
2022-11-13T20:33:57.223Z,98711.47
2022-11-13T20:36:26.355Z,98721.53
2022-11-13T20:38:57.364Z,98709.13
2022-11-13T20:41:26.099Z,98697.72
2022-11-13T20:43:56.293Z,98682.00
2022-11-13T20:46:23.816Z,98683.91
2022-11-13T20:48:51.095Z,98675.44
2022-11-13T20:51:28.577Z,98668.47
2022-11-13T20:53:56.597Z,98673.16
2022-11-13T20:56:26.658Z,98669.84
2022-11-13T20:58:54.424Z,98657.41
2022-11-13T21:01:28.018Z,98656.59
2022-11-13T21:03:56.107Z,98662.59
2022-11-13T21:06:27.062Z,98668.50
2022-11-13T21:08:56.310Z,98667.22
2022-11-13T21:11:29.484Z,98681.50
2022-11-13T21:13:58.233Z,98681.28
2022-11-13T21:16:28.119Z,98683.19
2022-11-13T21:18:58.954Z,98681.44
2022-11-13T21:21:28.853Z,98679.78
